sensor_id;sensor_type;location;lat;lon;timestamp;P1;durP1;ratioP1;P2;durP2;ratioP2
20040;SDS011;10181;48.072;9.884;2024-02-26T00:01:51;3.33;;;2.33;;
20040;SDS011;10181;48.072;9.884;2024-02-26T00:04:17;2.83;;;2.60;;
20040;SDS011;10181;48.072;9.884;2024-02-26T00:06:43;4.87;;;3.50;;
20040;SDS011;10181;48.072;9.884;2024-02-26T00:09:09;3.43;;;3.00;;
20040;SDS011;10181;48.072;9.884;2024-02-26T00:11:35;3.23;;;2.80;;
20040;SDS011;10181;48.072;9.884;2024-02-26T00:14:01;3.23;;;2.60;;
20040;SDS011;10181;48.072;9.884;2024-02-26T00:16:27;3.30;;;2.70;;
20040;SDS011;10181;48.072;9.884;2024-02-26T00:18:53;3.47;;;2.77;;
20040;SDS011;10181;48.072;9.884;2024-02-26T00:21:19;2.90;;;2.30;;
20040;SDS011;10181;48.072;9.884;2024-02-26T00:23:44;7.20;;;2.90;;
20040;SDS011;10181;48.072;9.884;2024-02-26T00:26:10;5.40;;;3.37;;
20040;SDS011;10181;48.072;9.884;2024-02-26T00:28:36;4.90;;;3.20;;
20040;SDS011;10181;48.072;9.884;2024-02-26T00:31:02;2.57;;;2.37;;
20040;SDS011;10181;48.072;9.884;2024-02-26T00:33:27;2.13;;;2.00;;
20040;SDS011;10181;48.072;9.884;2024-02-26T00:35:53;3.57;;;2.57;;
20040;SDS011;10181;48.072;9.884;2024-02-26T00:38:19;2.07;;;1.90;;
20040;SDS011;10181;48.072;9.884;2024-02-26T00:40:45;1.70;;;1.60;;
20040;SDS011;10181;48.072;9.884;2024-02-26T00:43:11;2.20;;;2.10;;
20040;SDS011;10181;48.072;9.884;2024-02-26T00:45:36;2.27;;;1.43;;
20040;SDS011;10181;48.072;9.884;2024-02-26T00:48:02;2.07;;;1.87;;
20040;SDS011;10181;48.072;9.884;2024-02-26T00:50:36;1.83;;;1.73;;
20040;SDS011;10181;48.072;9.884;2024-02-26T00:53:02;1.73;;;1.63;;
20040;SDS011;10181;48.072;9.884;2024-02-26T00:55:27;1.37;;;1.37;;
20040;SDS011;10181;48.072;9.884;2024-02-26T00:57:53;1.50;;;1.40;;
20040;SDS011;10181;48.072;9.884;2024-02-26T01:00:18;1.80;;;1.70;;
20040;SDS011;10181;48.072;9.884;2024-02-26T01:02:44;1.70;;;1.60;;
20040;SDS011;10181;48.072;9.884;2024-02-26T01:05:13;13.27;;;7.13;;
20040;SDS011;10181;48.072;9.884;2024-02-26T01:07:39;11.13;;;6.17;;
20040;SDS011;10181;48.072;9.884;2024-02-26T01:10:05;4.70;;;3.40;;
20040;SDS011;10181;48.072;9.884;2024-02-26T01:12:32;5.90;;;3.53;;
20040;SDS011;10181;48.072;9.884;2024-02-26T01:14:58;2.50;;;2.03;;
20040;SDS011;10181;48.072;9.884;2024-02-26T01:17:24;4.00;;;3.10;;
20040;SDS011;10181;48.072;9.884;2024-02-26T01:19:50;3.87;;;2.53;;
20040;SDS011;10181;48.072;9.884;2024-02-26T01:22:15;2.80;;;2.27;;
20040;SDS011;10181;48.072;9.884;2024-02-26T01:24:41;2.20;;;1.90;;
20040;SDS011;10181;48.072;9.884;2024-02-26T01:27:07;2.33;;;1.87;;
20040;SDS011;10181;48.072;9.884;2024-02-26T01:29:34;1.87;;;1.77;;
20040;SDS011;10181;48.072;9.884;2024-02-26T01:31:59;1.67;;;1.50;;
20040;SDS011;10181;48.072;9.884;2024-02-26T01:34:25;1.30;;;1.30;;
20040;SDS011;10181;48.072;9.884;2024-02-26T01:36:51;1.67;;;1.57;;
20040;SDS011;10181;48.072;9.884;2024-02-26T01:39:16;3.10;;;2.27;;
20040;SDS011;10181;48.072;9.884;2024-02-26T01:41:42;1.63;;;1.53;;
20040;SDS011;10181;48.072;9.884;2024-02-26T01:44:07;1.97;;;1.77;;
20040;SDS011;10181;48.072;9.884;2024-02-26T01:46:34;2.07;;;1.97;;
20040;SDS011;10181;48.072;9.884;2024-02-26T01:49:01;2.73;;;2.53;;
20040;SDS011;10181;48.072;9.884;2024-02-26T01:51:27;2.60;;;2.40;;
20040;SDS011;10181;48.072;9.884;2024-02-26T01:53:53;2.50;;;2.30;;
20040;SDS011;10181;48.072;9.884;2024-02-26T01:56:19;2.30;;;2.10;;
20040;SDS011;10181;48.072;9.884;2024-02-26T01:58:46;1.83;;;1.73;;
20040;SDS011;10181;48.072;9.884;2024-02-26T02:01:13;2.47;;;2.27;;
20040;SDS011;10181;48.072;9.884;2024-02-26T02:03:41;1.90;;;1.80;;
20040;SDS011;10181;48.072;9.884;2024-02-26T02:06:08;1.70;;;1.60;;
20040;SDS011;10181;48.072;9.884;2024-02-26T02:08:33;1.80;;;1.70;;
20040;SDS011;10181;48.072;9.884;2024-02-26T02:11:00;2.03;;;1.90;;
20040;SDS011;10181;48.072;9.884;2024-02-26T02:13:26;1.50;;;1.40;;
20040;SDS011;10181;48.072;9.884;2024-02-26T02:15:51;1.17;;;1.17;;
20040;SDS011;10181;48.072;9.884;2024-02-26T02:18:17;1.03;;;1.03;;
20040;SDS011;10181;48.072;9.884;2024-02-26T02:20:44;1.67;;;1.53;;
20040;SDS011;10181;48.072;9.884;2024-02-26T02:23:10;1.50;;;1.40;;
20040;SDS011;10181;48.072;9.884;2024-02-26T02:25:35;1.60;;;1.47;;
20040;SDS011;10181;48.072;9.884;2024-02-26T02:28:01;1.20;;;1.10;;
20040;SDS011;10181;48.072;9.884;2024-02-26T02:30:27;1.33;;;1.23;;
20040;SDS011;10181;48.072;9.884;2024-02-26T02:32:54;14.23;;;9.20;;
20040;SDS011;10181;48.072;9.884;2024-02-26T02:35:22;3.47;;;2.67;;
20040;SDS011;10181;48.072;9.884;2024-02-26T02:37:47;2.13;;;1.90;;
20040;SDS011;10181;48.072;9.884;2024-02-26T02:40:13;1.60;;;1.50;;
20040;SDS011;10181;48.072;9.884;2024-02-26T02:42:39;1.70;;;1.60;;
20040;SDS011;10181;48.072;9.884;2024-02-26T02:45:04;4.07;;;3.30;;
20040;SDS011;10181;48.072;9.884;2024-02-26T02:47:30;3.53;;;2.83;;
20040;SDS011;10181;48.072;9.884;2024-02-26T02:49:56;4.57;;;3.00;;
20040;SDS011;10181;48.072;9.884;2024-02-26T02:52:21;1.97;;;1.60;;
20040;SDS011;10181;48.072;9.884;2024-02-26T02:54:47;2.30;;;2.10;;
20040;SDS011;10181;48.072;9.884;2024-02-26T02:57:13;2.90;;;2.07;;
20040;SDS011;10181;48.072;9.884;2024-02-26T02:59:39;1.60;;;1.50;;
20040;SDS011;10181;48.072;9.884;2024-02-26T03:02:04;1.60;;;1.50;;
20040;SDS011;10181;48.072;9.884;2024-02-26T03:04:31;1.53;;;1.43;;
20040;SDS011;10181;48.072;9.884;2024-02-26T03:06:57;1.90;;;1.80;;
20040;SDS011;10181;48.072;9.884;2024-02-26T03:09:23;2.30;;;2.10;;
20040;SDS011;10181;48.072;9.884;2024-02-26T03:11:49;1.57;;;1.50;;
20040;SDS011;10181;48.072;9.884;2024-02-26T03:14:14;1.70;;;1.60;;
20040;SDS011;10181;48.072;9.884;2024-02-26T03:16:40;1.23;;;1.23;;
20040;SDS011;10181;48.072;9.884;2024-02-26T03:19:06;2.37;;;1.70;;
20040;SDS011;10181;48.072;9.884;2024-02-26T03:21:32;2.07;;;1.47;;
20040;SDS011;10181;48.072;9.884;2024-02-26T03:23:57;1.67;;;1.57;;
20040;SDS011;10181;48.072;9.884;2024-02-26T03:26:23;1.67;;;1.57;;
20040;SDS011;10181;48.072;9.884;2024-02-26T03:28:49;1.70;;;1.50;;
20040;SDS011;10181;48.072;9.884;2024-02-26T03:31:14;1.53;;;1.43;;
20040;SDS011;10181;48.072;9.884;2024-02-26T03:33:40;2.03;;;1.60;;
20040;SDS011;10181;48.072;9.884;2024-02-26T03:36:06;1.47;;;1.37;;
20040;SDS011;10181;48.072;9.884;2024-02-26T03:38:32;2.00;;;1.50;;
20040;SDS011;10181;48.072;9.884;2024-02-26T03:40:58;1.40;;;1.30;;
20040;SDS011;10181;48.072;9.884;2024-02-26T03:43:23;1.60;;;1.50;;
20040;SDS011;10181;48.072;9.884;2024-02-26T03:45:52;2.87;;;1.87;;
20040;SDS011;10181;48.072;9.884;2024-02-26T03:48:17;1.47;;;1.43;;
20040;SDS011;10181;48.072;9.884;2024-02-26T03:50:43;1.50;;;1.40;;
20040;SDS011;10181;48.072;9.884;2024-02-26T03:53:09;1.60;;;1.60;;
20040;SDS011;10181;48.072;9.884;2024-02-26T03:55:37;0.90;;;0.90;;
20040;SDS011;10181;48.072;9.884;2024-02-26T03:58:03;1.40;;;1.40;;
20040;SDS011;10181;48.072;9.884;2024-02-26T04:00:29;1.60;;;1.50;;
20040;SDS011;10181;48.072;9.884;2024-02-26T04:02:55;1.23;;;1.20;;
20040;SDS011;10181;48.072;9.884;2024-02-26T04:05:20;1.37;;;1.27;;
20040;SDS011;10181;48.072;9.884;2024-02-26T04:07:46;1.20;;;1.20;;
20040;SDS011;10181;48.072;9.884;2024-02-26T04:10:12;1.60;;;1.50;;
20040;SDS011;10181;48.072;9.884;2024-02-26T04:12:38;1.17;;;1.17;;
20040;SDS011;10181;48.072;9.884;2024-02-26T04:15:06;1.60;;;1.50;;
20040;SDS011;10181;48.072;9.884;2024-02-26T04:17:33;1.60;;;1.50;;
20040;SDS011;10181;48.072;9.884;2024-02-26T04:19:58;1.60;;;1.50;;
20040;SDS011;10181;48.072;9.884;2024-02-26T04:22:24;0.93;;;0.93;;
20040;SDS011;10181;48.072;9.884;2024-02-26T04:24:50;1.87;;;1.77;;
20040;SDS011;10181;48.072;9.884;2024-02-26T04:27:15;1.97;;;1.87;;
20040;SDS011;10181;48.072;9.884;2024-02-26T04:29:41;1.30;;;1.30;;
20040;SDS011;10181;48.072;9.884;2024-02-26T04:32:06;1.73;;;1.63;;
20040;SDS011;10181;48.072;9.884;2024-02-26T04:34:32;2.03;;;1.93;;
20040;SDS011;10181;48.072;9.884;2024-02-26T04:36:58;2.10;;;1.87;;
20040;SDS011;10181;48.072;9.884;2024-02-26T04:39:23;1.90;;;1.80;;
20040;SDS011;10181;48.072;9.884;2024-02-26T04:41:49;1.77;;;1.67;;
20040;SDS011;10181;48.072;9.884;2024-02-26T04:44:15;1.37;;;1.27;;
20040;SDS011;10181;48.072;9.884;2024-02-26T04:46:40;2.03;;;1.93;;
20040;SDS011;10181;48.072;9.884;2024-02-26T04:49:06;1.70;;;1.60;;
20040;SDS011;10181;48.072;9.884;2024-02-26T04:51:32;1.50;;;1.40;;
20040;SDS011;10181;48.072;9.884;2024-02-26T04:53:57;1.40;;;1.40;;
20040;SDS011;10181;48.072;9.884;2024-02-26T04:56:23;1.57;;;1.47;;
20040;SDS011;10181;48.072;9.884;2024-02-26T04:58:48;1.87;;;1.60;;
20040;SDS011;10181;48.072;9.884;2024-02-26T05:01:15;1.97;;;1.87;;
20040;SDS011;10181;48.072;9.884;2024-02-26T05:03:42;1.77;;;1.67;;
20040;SDS011;10181;48.072;9.884;2024-02-26T05:06:08;1.57;;;1.57;;
20040;SDS011;10181;48.072;9.884;2024-02-26T05:08:34;2.40;;;2.20;;
20040;SDS011;10181;48.072;9.884;2024-02-26T05:11:01;1.80;;;1.70;;
20040;SDS011;10181;48.072;9.884;2024-02-26T05:13:28;1.93;;;1.83;;
20040;SDS011;10181;48.072;9.884;2024-02-26T05:15:54;1.80;;;1.70;;
20040;SDS011;10181;48.072;9.884;2024-02-26T05:18:19;1.43;;;1.40;;
20040;SDS011;10181;48.072;9.884;2024-02-26T05:20:45;2.93;;;2.20;;
20040;SDS011;10181;48.072;9.884;2024-02-26T05:23:11;1.90;;;1.80;;
20040;SDS011;10181;48.072;9.884;2024-02-26T05:25:37;2.87;;;2.23;;
20040;SDS011;10181;48.072;9.884;2024-02-26T05:28:02;2.10;;;1.90;;
20040;SDS011;10181;48.072;9.884;2024-02-26T05:30:28;2.07;;;1.87;;
20040;SDS011;10181;48.072;9.884;2024-02-26T05:32:54;4.27;;;3.43;;
20040;SDS011;10181;48.072;9.884;2024-02-26T05:35:19;2.23;;;2.13;;
20040;SDS011;10181;48.072;9.884;2024-02-26T05:37:45;2.70;;;2.50;;
20040;SDS011;10181;48.072;9.884;2024-02-26T05:40:11;1.80;;;1.70;;
20040;SDS011;10181;48.072;9.884;2024-02-26T05:42:37;1.60;;;1.50;;
20040;SDS011;10181;48.072;9.884;2024-02-26T05:45:03;1.87;;;1.73;;
20040;SDS011;10181;48.072;9.884;2024-02-26T05:47:32;1.60;;;1.50;;
20040;SDS011;10181;48.072;9.884;2024-02-26T05:49:58;2.13;;;1.90;;
20040;SDS011;10181;48.072;9.884;2024-02-26T05:52:25;1.70;;;1.60;;
20040;SDS011;10181;48.072;9.884;2024-02-26T05:54:51;1.60;;;1.50;;
20040;SDS011;10181;48.072;9.884;2024-02-26T05:57:17;1.90;;;1.80;;
20040;SDS011;10181;48.072;9.884;2024-02-26T05:59:43;1.90;;;1.80;;
20040;SDS011;10181;48.072;9.884;2024-02-26T06:02:09;1.43;;;1.43;;
20040;SDS011;10181;48.072;9.884;2024-02-26T06:04:35;2.07;;;1.70;;
20040;SDS011;10181;48.072;9.884;2024-02-26T06:07:00;2.37;;;2.20;;
20040;SDS011;10181;48.072;9.884;2024-02-26T06:09:26;3.10;;;2.90;;
20040;SDS011;10181;48.072;9.884;2024-02-26T06:11:52;5.47;;;3.50;;
20040;SDS011;10181;48.072;9.884;2024-02-26T06:14:17;4.43;;;3.47;;
20040;SDS011;10181;48.072;9.884;2024-02-26T06:16:44;3.17;;;2.87;;
20040;SDS011;10181;48.072;9.884;2024-02-26T06:19:10;2.43;;;2.23;;
20040;SDS011;10181;48.072;9.884;2024-02-26T06:21:35;3.10;;;2.80;;
20040;SDS011;10181;48.072;9.884;2024-02-26T06:24:01;2.70;;;2.50;;
20040;SDS011;10181;48.072;9.884;2024-02-26T06:26:27;2.70;;;2.50;;
20040;SDS011;10181;48.072;9.884;2024-02-26T06:28:55;2.27;;;2.10;;
20040;SDS011;10181;48.072;9.884;2024-02-26T06:31:21;2.37;;;2.17;;
20040;SDS011;10181;48.072;9.884;2024-02-26T06:33:48;2.97;;;2.77;;
20040;SDS011;10181;48.072;9.884;2024-02-26T06:36:15;2.47;;;2.27;;
20040;SDS011;10181;48.072;9.884;2024-02-26T06:38:41;2.57;;;2.37;;
20040;SDS011;10181;48.072;9.884;2024-02-26T06:41:06;2.23;;;2.03;;
20040;SDS011;10181;48.072;9.884;2024-02-26T06:43:32;1.73;;;1.63;;
20040;SDS011;10181;48.072;9.884;2024-02-26T06:45:58;2.30;;;2.20;;
20040;SDS011;10181;48.072;9.884;2024-02-26T06:48:24;1.97;;;1.83;;
20040;SDS011;10181;48.072;9.884;2024-02-26T06:50:49;2.23;;;2.07;;
20040;SDS011;10181;48.072;9.884;2024-02-26T06:53:15;3.03;;;2.77;;
20040;SDS011;10181;48.072;9.884;2024-02-26T06:55:41;4.37;;;2.40;;
20040;SDS011;10181;48.072;9.884;2024-02-26T06:58:08;1.93;;;1.83;;
20040;SDS011;10181;48.072;9.884;2024-02-26T07:00:34;2.17;;;1.97;;
20040;SDS011;10181;48.072;9.884;2024-02-26T07:03:00;2.80;;;2.60;;
20040;SDS011;10181;48.072;9.884;2024-02-26T07:05:26;1.97;;;1.87;;
20040;SDS011;10181;48.072;9.884;2024-02-26T07:07:52;2.63;;;2.43;;
20040;SDS011;10181;48.072;9.884;2024-02-26T07:10:18;2.40;;;2.20;;
20040;SDS011;10181;48.072;9.884;2024-02-26T07:12:44;2.20;;;2.10;;
20040;SDS011;10181;48.072;9.884;2024-02-26T07:15:10;2.70;;;2.50;;
20040;SDS011;10181;48.072;9.884;2024-02-26T07:17:35;3.03;;;2.70;;
20040;SDS011;10181;48.072;9.884;2024-02-26T07:20:01;2.70;;;2.47;;
20040;SDS011;10181;48.072;9.884;2024-02-26T07:22:30;2.60;;;2.40;;
20040;SDS011;10181;48.072;9.884;2024-02-26T07:24:56;2.47;;;2.17;;
20040;SDS011;10181;48.072;9.884;2024-02-26T07:27:23;1.93;;;1.83;;
20040;SDS011;10181;48.072;9.884;2024-02-26T07:29:48;3.37;;;3.07;;
20040;SDS011;10181;48.072;9.884;2024-02-26T07:32:14;3.47;;;3.17;;
20040;SDS011;10181;48.072;9.884;2024-02-26T07:34:40;3.07;;;2.83;;
20040;SDS011;10181;48.072;9.884;2024-02-26T07:37:09;3.70;;;3.37;;
20040;SDS011;10181;48.072;9.884;2024-02-26T07:39:38;2.93;;;2.60;;
20040;SDS011;10181;48.072;9.884;2024-02-26T07:42:04;3.00;;;2.80;;
20040;SDS011;10181;48.072;9.884;2024-02-26T07:44:29;2.67;;;2.30;;
20040;SDS011;10181;48.072;9.884;2024-02-26T07:46:55;6.03;;;3.30;;
20040;SDS011;10181;48.072;9.884;2024-02-26T07:49:21;3.77;;;2.57;;
20040;SDS011;10181;48.072;9.884;2024-02-26T07:51:46;3.13;;;2.40;;
20040;SDS011;10181;48.072;9.884;2024-02-26T07:54:12;2.97;;;2.77;;
20040;SDS011;10181;48.072;9.884;2024-02-26T07:56:38;2.80;;;2.60;;
20040;SDS011;10181;48.072;9.884;2024-02-26T07:59:03;5.20;;;3.03;;
20040;SDS011;10181;48.072;9.884;2024-02-26T08:01:29;2.77;;;2.53;;
20040;SDS011;10181;48.072;9.884;2024-02-26T08:03:54;3.13;;;2.83;;
20040;SDS011;10181;48.072;9.884;2024-02-26T08:06:20;3.13;;;2.90;;
20040;SDS011;10181;48.072;9.884;2024-02-26T08:08:46;2.93;;;2.73;;
20040;SDS011;10181;48.072;9.884;2024-02-26T08:11:14;3.40;;;3.10;;
20040;SDS011;10181;48.072;9.884;2024-02-26T08:13:40;3.53;;;3.23;;
20040;SDS011;10181;48.072;9.884;2024-02-26T08:16:06;3.73;;;3.43;;
20040;SDS011;10181;48.072;9.884;2024-02-26T08:18:32;3.60;;;3.30;;
20040;SDS011;10181;48.072;9.884;2024-02-26T08:20:57;4.43;;;3.60;;
20040;SDS011;10181;48.072;9.884;2024-02-26T08:23:23;3.13;;;2.83;;
20040;SDS011;10181;48.072;9.884;2024-02-26T08:25:48;2.77;;;2.57;;
20040;SDS011;10181;48.072;9.884;2024-02-26T08:28:14;3.30;;;3.10;;
20040;SDS011;10181;48.072;9.884;2024-02-26T08:30:42;2.67;;;2.47;;
20040;SDS011;10181;48.072;9.884;2024-02-26T08:33:08;3.30;;;3.07;;
20040;SDS011;10181;48.072;9.884;2024-02-26T08:35:34;3.83;;;3.53;;
20040;SDS011;10181;48.072;9.884;2024-02-26T08:38:00;3.70;;;2.63;;
20040;SDS011;10181;48.072;9.884;2024-02-26T08:40:26;2.77;;;2.57;;
20040;SDS011;10181;48.072;9.884;2024-02-26T08:42:51;3.23;;;2.93;;
20040;SDS011;10181;48.072;9.884;2024-02-26T08:45:17;2.80;;;2.60;;
20040;SDS011;10181;48.072;9.884;2024-02-26T08:47:44;2.90;;;2.70;;
20040;SDS011;10181;48.072;9.884;2024-02-26T08:50:10;3.00;;;2.47;;
20040;SDS011;10181;48.072;9.884;2024-02-26T08:52:37;3.20;;;2.93;;
20040;SDS011;10181;48.072;9.884;2024-02-26T08:55:03;2.57;;;2.37;;
20040;SDS011;10181;48.072;9.884;2024-02-26T08:57:29;4.00;;;3.70;;
20040;SDS011;10181;48.072;9.884;2024-02-26T08:59:58;5.10;;;3.63;;
20040;SDS011;10181;48.072;9.884;2024-02-26T09:02:23;4.30;;;3.93;;
20040;SDS011;10181;48.072;9.884;2024-02-26T09:04:49;5.47;;;4.23;;
20040;SDS011;10181;48.072;9.884;2024-02-26T09:07:16;3.97;;;3.67;;
20040;SDS011;10181;48.072;9.884;2024-02-26T09:09:42;4.40;;;4.00;;
20040;SDS011;10181;48.072;9.884;2024-02-26T09:12:07;6.27;;;4.20;;
20040;SDS011;10181;48.072;9.884;2024-02-26T09:14:33;6.67;;;4.60;;
20040;SDS011;10181;48.072;9.884;2024-02-26T09:16:58;4.23;;;3.83;;
20040;SDS011;10181;48.072;9.884;2024-02-26T09:19:25;5.87;;;5.10;;
20040;SDS011;10181;48.072;9.884;2024-02-26T09:21:52;5.83;;;5.10;;
20040;SDS011;10181;48.072;9.884;2024-02-26T09:24:22;3.87;;;3.53;;
20040;SDS011;10181;48.072;9.884;2024-02-26T09:26:48;5.83;;;5.17;;
20040;SDS011;10181;48.072;9.884;2024-02-26T09:29:14;5.20;;;4.70;;
20040;SDS011;10181;48.072;9.884;2024-02-26T09:31:39;5.77;;;5.20;;
20040;SDS011;10181;48.072;9.884;2024-02-26T09:34:06;5.20;;;4.70;;
20040;SDS011;10181;48.072;9.884;2024-02-26T09:36:32;4.40;;;4.00;;
20040;SDS011;10181;48.072;9.884;2024-02-26T09:38:58;5.07;;;4.67;;
20040;SDS011;10181;48.072;9.884;2024-02-26T09:41:24;5.47;;;4.60;;
20040;SDS011;10181;48.072;9.884;2024-02-26T09:43:58;4.20;;;3.67;;
20040;SDS011;10181;48.072;9.884;2024-02-26T09:46:27;4.57;;;4.17;;
20040;SDS011;10181;48.072;9.884;2024-02-26T09:48:53;4.93;;;4.57;;
20040;SDS011;10181;48.072;9.884;2024-02-26T09:51:19;4.63;;;4.23;;
20040;SDS011;10181;48.072;9.884;2024-02-26T09:53:48;5.03;;;4.63;;
20040;SDS011;10181;48.072;9.884;2024-02-26T09:56:17;5.23;;;3.93;;
20040;SDS011;10181;48.072;9.884;2024-02-26T09:58:43;4.67;;;4.27;;
20040;SDS011;10181;48.072;9.884;2024-02-26T10:01:13;4.37;;;3.97;;
20040;SDS011;10181;48.072;9.884;2024-02-26T10:03:42;4.00;;;3.70;;
20040;SDS011;10181;48.072;9.884;2024-02-26T10:06:09;3.97;;;3.53;;
20040;SDS011;10181;48.072;9.884;2024-02-26T10:08:35;4.70;;;4.03;;
20040;SDS011;10181;48.072;9.884;2024-02-26T10:11:05;4.73;;;4.33;;
20040;SDS011;10181;48.072;9.884;2024-02-26T10:13:33;3.73;;;3.43;;
20040;SDS011;10181;48.072;9.884;2024-02-26T10:16:02;4.43;;;3.70;;
20040;SDS011;10181;48.072;9.884;2024-02-26T10:18:52;4.33;;;3.53;;
20040;SDS011;10181;48.072;9.884;2024-02-26T10:21:22;4.47;;;3.63;;
20040;SDS011;10181;48.072;9.884;2024-02-26T10:23:48;3.83;;;3.50;;
20040;SDS011;10181;48.072;9.884;2024-02-26T10:26:14;3.97;;;3.53;;
20040;SDS011;10181;48.072;9.884;2024-02-26T10:28:44;3.90;;;3.50;;
20040;SDS011;10181;48.072;9.884;2024-02-26T10:31:11;4.40;;;3.67;;
20040;SDS011;10181;48.072;9.884;2024-02-26T10:33:39;3.17;;;2.93;;
20040;SDS011;10181;48.072;9.884;2024-02-26T10:36:06;3.93;;;3.30;;
20040;SDS011;10181;48.072;9.884;2024-02-26T10:38:32;3.03;;;2.83;;
20040;SDS011;10181;48.072;9.884;2024-02-26T10:40:59;3.40;;;3.10;;
20040;SDS011;10181;48.072;9.884;2024-02-26T10:43:26;3.30;;;3.10;;
20040;SDS011;10181;48.072;9.884;2024-02-26T10:45:52;3.83;;;2.77;;
20040;SDS011;10181;48.072;9.884;2024-02-26T10:48:20;3.27;;;3.07;;
20040;SDS011;10181;48.072;9.884;2024-02-26T10:50:46;3.20;;;3.00;;
20040;SDS011;10181;48.072;9.884;2024-02-26T10:53:13;2.73;;;2.53;;
20040;SDS011;10181;48.072;9.884;2024-02-26T10:58:43;2.70;;;2.50;;
20040;SDS011;10181;48.072;9.884;2024-02-26T11:01:11;3.00;;;2.80;;
20040;SDS011;10181;48.072;9.884;2024-02-26T11:03:38;2.73;;;2.53;;
20040;SDS011;10181;48.072;9.884;2024-02-26T11:06:04;2.87;;;2.67;;
20040;SDS011;10181;48.072;9.884;2024-02-26T11:08:30;3.10;;;2.90;;
20040;SDS011;10181;48.072;9.884;2024-02-26T11:10:57;2.83;;;2.60;;
20040;SDS011;10181;48.072;9.884;2024-02-26T11:13:26;2.60;;;2.40;;
20040;SDS011;10181;48.072;9.884;2024-02-26T11:15:55;2.70;;;2.50;;
20040;SDS011;10181;48.072;9.884;2024-02-26T11:18:22;3.10;;;2.80;;
20040;SDS011;10181;48.072;9.884;2024-02-26T11:20:48;2.47;;;2.27;;
20040;SDS011;10181;48.072;9.884;2024-02-26T11:23:16;2.83;;;2.63;;
20040;SDS011;10181;48.072;9.884;2024-02-26T11:25:41;2.33;;;2.23;;
20040;SDS011;10181;48.072;9.884;2024-02-26T11:28:12;4.67;;;3.03;;
20040;SDS011;10181;48.072;9.884;2024-02-26T11:30:43;2.30;;;2.20;;
20040;SDS011;10181;48.072;9.884;2024-02-26T11:33:12;2.60;;;2.33;;
20040;SDS011;10181;48.072;9.884;2024-02-26T11:35:39;3.03;;;2.70;;
20040;SDS011;10181;48.072;9.884;2024-02-26T11:38:05;2.50;;;2.30;;
20040;SDS011;10181;48.072;9.884;2024-02-26T11:40:32;2.80;;;2.60;;
20040;SDS011;10181;48.072;9.884;2024-02-26T11:42:58;2.47;;;2.23;;
20040;SDS011;10181;48.072;9.884;2024-02-26T11:48:13;2.40;;;2.30;;
20040;SDS011;10181;48.072;9.884;2024-02-26T11:50:45;2.67;;;2.47;;
20040;SDS011;10181;48.072;9.884;2024-02-26T11:58:42;2.83;;;2.17;;
20040;SDS011;10181;48.072;9.884;2024-02-26T12:04:04;1.80;;;1.70;;
20040;SDS011;10181;48.072;9.884;2024-02-26T12:06:30;1.17;;;1.17;;
20040;SDS011;10181;48.072;9.884;2024-02-26T12:08:56;1.50;;;1.40;;
20040;SDS011;10181;48.072;9.884;2024-02-26T12:11:21;1.83;;;1.70;;
20040;SDS011;10181;48.072;9.884;2024-02-26T12:13:47;1.57;;;1.47;;
20040;SDS011;10181;48.072;9.884;2024-02-26T12:16:21;1.40;;;1.30;;
20040;SDS011;10181;48.072;9.884;2024-02-26T12:19:06;1.57;;;1.47;;
20040;SDS011;10181;48.072;9.884;2024-02-26T12:21:34;1.00;;;1.00;;
20040;SDS011;10181;48.072;9.884;2024-02-26T12:24:13;1.23;;;1.23;;
20040;SDS011;10181;48.072;9.884;2024-02-26T12:26:41;1.57;;;1.47;;
20040;SDS011;10181;48.072;9.884;2024-02-26T12:29:07;1.60;;;1.30;;
20040;SDS011;10181;48.072;9.884;2024-02-26T12:31:34;1.57;;;1.47;;
20040;SDS011;10181;48.072;9.884;2024-02-26T12:34:02;1.60;;;1.50;;
20040;SDS011;10181;48.072;9.884;2024-02-26T12:36:29;1.37;;;1.27;;
20040;SDS011;10181;48.072;9.884;2024-02-26T12:38:55;1.33;;;1.33;;
20040;SDS011;10181;48.072;9.884;2024-02-26T12:41:21;2.40;;;1.57;;
20040;SDS011;10181;48.072;9.884;2024-02-26T12:43:48;1.37;;;1.23;;
20040;SDS011;10181;48.072;9.884;2024-02-26T12:46:14;1.57;;;1.47;;
20040;SDS011;10181;48.072;9.884;2024-02-26T12:48:44;1.60;;;1.47;;
20040;SDS011;10181;48.072;9.884;2024-02-26T12:51:10;1.63;;;1.53;;
20040;SDS011;10181;48.072;9.884;2024-02-26T12:53:40;1.60;;;1.50;;
20040;SDS011;10181;48.072;9.884;2024-02-26T12:56:07;2.17;;;1.77;;
20040;SDS011;10181;48.072;9.884;2024-02-26T12:58:34;1.83;;;1.73;;
20040;SDS011;10181;48.072;9.884;2024-02-26T13:01:03;1.50;;;1.40;;
20040;SDS011;10181;48.072;9.884;2024-02-26T13:03:29;1.50;;;1.40;;
20040;SDS011;10181;48.072;9.884;2024-02-26T13:05:55;2.10;;;1.87;;
20040;SDS011;10181;48.072;9.884;2024-02-26T13:08:21;2.10;;;1.90;;
20040;SDS011;10181;48.072;9.884;2024-02-26T13:10:46;2.10;;;2.00;;
20040;SDS011;10181;48.072;9.884;2024-02-26T13:13:15;2.73;;;2.53;;
20040;SDS011;10181;48.072;9.884;2024-02-26T13:15:42;2.33;;;2.23;;
20040;SDS011;10181;48.072;9.884;2024-02-26T13:18:09;2.13;;;1.93;;
20040;SDS011;10181;48.072;9.884;2024-02-26T13:20:35;2.20;;;2.10;;
20040;SDS011;10181;48.072;9.884;2024-02-26T13:23:04;3.07;;;2.37;;
20040;SDS011;10181;48.072;9.884;2024-02-26T13:25:31;3.60;;;3.00;;
20040;SDS011;10181;48.072;9.884;2024-02-26T13:28:31;2.80;;;2.60;;
20040;SDS011;10181;48.072;9.884;2024-02-26T13:30:55;2.33;;;2.10;;
20040;SDS011;10181;48.072;9.884;2024-02-26T13:33:22;1.90;;;1.80;;
20040;SDS011;10181;48.072;9.884;2024-02-26T13:35:52;2.40;;;2.20;;
20040;SDS011;10181;48.072;9.884;2024-02-26T13:38:18;2.30;;;2.20;;
20040;SDS011;10181;48.072;9.884;2024-02-26T13:40:43;1.70;;;1.60;;
20040;SDS011;10181;48.072;9.884;2024-02-26T13:43:09;2.10;;;1.60;;
20040;SDS011;10181;48.072;9.884;2024-02-26T13:45:35;3.30;;;2.30;;
20040;SDS011;10181;48.072;9.884;2024-02-26T13:48:02;1.70;;;1.60;;
20040;SDS011;10181;48.072;9.884;2024-02-26T13:50:30;2.03;;;1.90;;
20040;SDS011;10181;48.072;9.884;2024-02-26T13:52:55;1.70;;;1.60;;
20040;SDS011;10181;48.072;9.884;2024-02-26T13:55:22;1.90;;;1.80;;
20040;SDS011;10181;48.072;9.884;2024-02-26T13:57:50;1.90;;;1.80;;
20040;SDS011;10181;48.072;9.884;2024-02-26T14:00:18;1.87;;;1.70;;
20040;SDS011;10181;48.072;9.884;2024-02-26T14:02:44;2.03;;;1.93;;
20040;SDS011;10181;48.072;9.884;2024-02-26T14:05:10;1.60;;;1.50;;
20040;SDS011;10181;48.072;9.884;2024-02-26T14:07:36;1.70;;;1.60;;
20040;SDS011;10181;48.072;9.884;2024-02-26T14:10:01;2.10;;;2.00;;
20040;SDS011;10181;48.072;9.884;2024-02-26T14:12:27;2.20;;;2.03;;
20040;SDS011;10181;48.072;9.884;2024-02-26T14:14:53;2.13;;;1.90;;
20040;SDS011;10181;48.072;9.884;2024-02-26T14:17:20;2.40;;;2.20;;
20040;SDS011;10181;48.072;9.884;2024-02-26T14:19:46;1.90;;;1.80;;
20040;SDS011;10181;48.072;9.884;2024-02-26T14:22:13;1.70;;;1.60;;
20040;SDS011;10181;48.072;9.884;2024-02-26T14:24:39;2.23;;;2.00;;
20040;SDS011;10181;48.072;9.884;2024-02-26T14:27:06;2.13;;;1.97;;
20040;SDS011;10181;48.072;9.884;2024-02-26T14:29:34;1.87;;;1.77;;
20040;SDS011;10181;48.072;9.884;2024-02-26T14:32:00;1.77;;;1.67;;
20040;SDS011;10181;48.072;9.884;2024-02-26T14:34:26;2.03;;;1.80;;
20040;SDS011;10181;48.072;9.884;2024-02-26T14:36:52;2.07;;;1.97;;
20040;SDS011;10181;48.072;9.884;2024-02-26T14:39:18;2.10;;;2.00;;
20040;SDS011;10181;48.072;9.884;2024-02-26T14:41:43;2.10;;;1.93;;
20040;SDS011;10181;48.072;9.884;2024-02-26T14:44:09;1.80;;;1.70;;
20040;SDS011;10181;48.072;9.884;2024-02-26T14:46:35;2.57;;;1.70;;
20040;SDS011;10181;48.072;9.884;2024-02-26T14:49:01;2.17;;;2.00;;
20040;SDS011;10181;48.072;9.884;2024-02-26T14:51:27;2.20;;;2.10;;
20040;SDS011;10181;48.072;9.884;2024-02-26T14:53:53;1.93;;;1.83;;
20040;SDS011;10181;48.072;9.884;2024-02-26T14:56:18;2.10;;;2.00;;
20040;SDS011;10181;48.072;9.884;2024-02-26T14:58:44;1.70;;;1.60;;